Brandy Bar — WDF7323 — position and weather

sailwx.info

Track history (hours):
 
Tides and Currents Weather Stations Pressure Air Temp Water Temp Dewpoint Dewpoint Depression Visibility Wind Speed Wind Dir Waves Ship Positions

Brandy Bar

Owner: Brandy Bar, Tiburon, CA. More information available from US FCC via Universal Licensing System and Coast Guard Vessel Documentation Center.

Last reported at 2015-Aug-28 22:26 UTC. Time now 2015-Aug-29 14:44 UTC.
Position N 37°58' W 122°29'.

Type: Towing. MMSI: 367483310.

Date/timePositionNaut miles runAvg speedWind from/ knotsBaromVisibWave heightAir tempDewpointWater temp
2015-Aug-28 22:26N 37°58' W 122°29'0 0.1
2015-Aug-28 21:34N 37°58' W 122°29'0 0.0
2015-Aug-28 20:34N 37°58' W 122°29'3 2.5
2015-Aug-28 19:33N 37°59' W 122°26'2 2.2
2015-Aug-28 18:33N 37°58' W 122°28'1 1.0
2015-Aug-28 17:33N 37°58' W 122°29'0 0.0
2015-Aug-28 16:33N 37°58' W 122°29'0 0.0
2015-Aug-28 01:33N 37°58' W 122°29'4 3.6
2015-Aug-28 00:33N 38°00' W 122°25'4 3.6
2015-Aug-27 23:33N 37°58' W 122°29'0 0.4
2015-Aug-27 22:33N 37°58' W 122°29'1 0.6
2015-Aug-27 21:33N 37°58' W 122°28'3 3.0
2015-Aug-27 20:33N 37°60' W 122°26'3 2.9
2015-Aug-27 19:34N 37°58' W 122°29'0 0.0
2015-Aug-27 18:33N 37°58' W 122°29'2 1.5
2015-Aug-27 17:33N 37°58' W 122°27'2 2.3
2015-Aug-27 16:33N 37°60' W 122°26'3 2.9
2015-Aug-27 15:33N 37°58' W 122°29'0 0.0
2015-Aug-26 20:33N 37°58' W 122°29'4 3.9
2015-Aug-26 19:33N 38°00' W 122°25'4 3.8
2015-Aug-26 18:33N 37°58' W 122°29'0 0.0
2015-Aug-26 17:33N 37°58' W 122°29'3 3.2
2015-Aug-26 16:33N 37°60' W 122°25'3 2.9
2015-Aug-26 15:33N 37°58' W 122°28'1 0.1
2015-Aug-25 23:33N 37°58' W 122°29'0 0.0
2015-Aug-25 22:33N 37°58' W 122°29'0 0.0
2015-Aug-25 21:33N 37°58' W 122°29'3 2.8
2015-Aug-25 20:33N 37°59' W 122°26'2 2.2
2015-Aug-25 19:33N 37°58' W 122°27'2 1.6
2015-Aug-25 18:33N 37°58' W 122°29'1 0.6
2015-Aug-25 17:33N 37°58' W 122°28'4 3.7
2015-Aug-25 16:33N 38°00' W 122°25'4 3.7
2015-Aug-25 15:33N 37°58' W 122°29'0 0.0
2015-Aug-25 14:33N 37°58' W 122°29'0 0.0
2015-Aug-25 00:34N 37°58' W 122°29'4 3.6
2015-Aug-24 23:33N 38°00' W 122°25'4 3.7
2015-Aug-24 22:33N 37°58' W 122°29'0 0.4
2015-Aug-24 21:34N 37°58' W 122°29'3 3.2
2015-Aug-24 20:34N 37°60' W 122°25'3 2.7
2015-Aug-24 19:33N 37°58' W 122°27'2 1.7
2015-Aug-24 18:34N 37°58' W 122°29'0 0.0
2015-Aug-24 17:32N 37°58' W 122°29'0 0.0
2015-Aug-24 16:34N 37°58' W 122°29'0 0.0
2015-Aug-24 15:21N 37°58' W 122°29'0 0.0
2015-Aug-24 14:33N 37°58' W 122°29'  
2015-Aug-21 22:16N 37°58' W 122°29'1 1.3
2015-Aug-21 21:34N 37°58' W 122°28'4 3.6
2015-Aug-21 20:34N 38°00' W 122°25'4 3.8
2015-Aug-21 19:33N 37°58' W 122°29'0 0.1
2015-Aug-21 18:34N 37°58' W 122°29'3 3.4
2015-Aug-21 17:34N 38°00' W 122°25'2 2.4
2015-Aug-21 16:33N 37°58' W 122°27'2 1.8
2015-Aug-21 15:33N 37°58' W 122°29'0 0.0
2015-Aug-21 14:34N 37°58' W 122°29'0 0.0
2015-Aug-20 23:33N 37°58' W 122°29'0 0.3
2015-Aug-20 22:33N 37°58' W 122°29'4 3.8
2015-Aug-20 21:33N 38°00' W 122°25'2 2.4
2015-Aug-20 20:33N 37°58' W 122°27'2 1.8
2015-Aug-20 19:33N 37°58' W 122°29'0 0.0
2015-Aug-20 18:33N 37°58' W 122°29'0 0.1
2015-Aug-20 17:33N 37°58' W 122°29'0 0.0
2015-Aug-20 16:33N 37°58' W 122°29'2 1.7
2015-Aug-20 15:33N 37°58' W 122°27'1 1.3
2015-Aug-20 14:33N 37°59' W 122°26'2 2.1
2015-Aug-20 13:33N 37°58' W 122°29'0 0.0
2015-Aug-20 00:33N 37°58' W 122°29'0 0.0
2015-Aug-19 23:33N 37°58' W 122°29'0 0.0
2015-Aug-19 22:33N 37°58' W 122°29'2 1.6
2015-Aug-19 21:33N 37°58' W 122°27'2 2.0
2015-Aug-19 20:33N 37°60' W 122°26'3 2.9
2015-Aug-19 19:33N 37°58' W 122°29'0 0.0
2015-Aug-19 18:33N 37°58' W 122°29'0 0.0
2015-Aug-19 17:33N 37°58' W 122°29'0 0.0
2015-Aug-19 16:33N 37°58' W 122°29'1 0.5
2015-Aug-19 15:33N 37°58' W 122°29'3 3.4
2015-Aug-19 14:33N 38°00' W 122°25'3 3.4
2015-Aug-19 13:33N 37°58' W 122°28'1 0.0
2015-Aug-18 23:33N 37°58' W 122°29'0 0.0
2015-Aug-18 22:34N 37°58' W 122°29'  
Track history (hours):
 
Tides and Currents Weather Stations Pressure Air Temp Water Temp Dewpoint Dewpoint Depression Visibility Wind Speed Wind Dir Waves Ship Positions

Brandy Bar

Owner: Brandy Bar, Tiburon, CA. More information available from US FCC via Universal Licensing System and Coast Guard Vessel Documentation Center.

Last reported at 2015-Aug-28 22:26 UTC. Time now 2015-Aug-29 14:44 UTC.
Position N 37°58' W 122°29'.

Type: Towing. MMSI: 367483310.

Date/timePositionNaut miles runAvg speedWind from/ knotsBaromVisibWave heightAir tempDewpointWater temp
2015-Aug-28 22:26N 37°58' W 122°29'0 0.1
2015-Aug-28 21:34N 37°58' W 122°29'0 0.0
2015-Aug-28 20:34N 37°58' W 122°29'3 2.5
2015-Aug-28 19:33N 37°59' W 122°26'2 2.2
2015-Aug-28 18:33N 37°58' W 122°28'1 1.0
2015-Aug-28 17:33N 37°58' W 122°29'0 0.0
2015-Aug-28 16:33N 37°58' W 122°29'0 0.0
2015-Aug-28 01:33N 37°58' W 122°29'4 3.6
2015-Aug-28 00:33N 38°00' W 122°25'4 3.6
2015-Aug-27 23:33N 37°58' W 122°29'0 0.4
2015-Aug-27 22:33N 37°58' W 122°29'1 0.6
2015-Aug-27 21:33N 37°58' W 122°28'3 3.0
2015-Aug-27 20:33N 37°60' W 122°26'3 2.9
2015-Aug-27 19:34N 37°58' W 122°29'0 0.0
2015-Aug-27 18:33N 37°58' W 122°29'2 1.5
2015-Aug-27 17:33N 37°58' W 122°27'2 2.3
2015-Aug-27 16:33N 37°60' W 122°26'3 2.9
2015-Aug-27 15:33N 37°58' W 122°29'0 0.0
2015-Aug-26 20:33N 37°58' W 122°29'4 3.9
2015-Aug-26 19:33N 38°00' W 122°25'4 3.8
2015-Aug-26 18:33N 37°58' W 122°29'0 0.0
2015-Aug-26 17:33N 37°58' W 122°29'3 3.2
2015-Aug-26 16:33N 37°60' W 122°25'3 2.9
2015-Aug-26 15:33N 37°58' W 122°28'1 0.1
2015-Aug-25 23:33N 37°58' W 122°29'0 0.0
2015-Aug-25 22:33N 37°58' W 122°29'0 0.0
2015-Aug-25 21:33N 37°58' W 122°29'3 2.8
2015-Aug-25 20:33N 37°59' W 122°26'2 2.2
2015-Aug-25 19:33N 37°58' W 122°27'2 1.6
2015-Aug-25 18:33N 37°58' W 122°29'1 0.6
2015-Aug-25 17:33N 37°58' W 122°28'4 3.7
2015-Aug-25 16:33N 38°00' W 122°25'4 3.7
2015-Aug-25 15:33N 37°58' W 122°29'0 0.0
2015-Aug-25 14:33N 37°58' W 122°29'0 0.0
2015-Aug-25 00:34N 37°58' W 122°29'4 3.6
2015-Aug-24 23:33N 38°00' W 122°25'4 3.7
2015-Aug-24 22:33N 37°58' W 122°29'0 0.4
2015-Aug-24 21:34N 37°58' W 122°29'3 3.2
2015-Aug-24 20:34N 37°60' W 122°25'3 2.7
2015-Aug-24 19:33N 37°58' W 122°27'2 1.7
2015-Aug-24 18:34N 37°58' W 122°29'0 0.0
2015-Aug-24 17:32N 37°58' W 122°29'0 0.0
2015-Aug-24 16:34N 37°58' W 122°29'0 0.0
2015-Aug-24 15:21N 37°58' W 122°29'0 0.0
2015-Aug-24 14:33N 37°58' W 122°29'  
2015-Aug-21 22:16N 37°58' W 122°29'1 1.3
2015-Aug-21 21:34N 37°58' W 122°28'4 3.6
2015-Aug-21 20:34N 38°00' W 122°25'4 3.8
2015-Aug-21 19:33N 37°58' W 122°29'0 0.1
2015-Aug-21 18:34N 37°58' W 122°29'3 3.4
2015-Aug-21 17:34N 38°00' W 122°25'2 2.4
2015-Aug-21 16:33N 37°58' W 122°27'2 1.8
2015-Aug-21 15:33N 37°58' W 122°29'0 0.0
2015-Aug-21 14:34N 37°58' W 122°29'0 0.0
2015-Aug-20 23:33N 37°58' W 122°29'0 0.3
2015-Aug-20 22:33N 37°58' W 122°29'4 3.8
2015-Aug-20 21:33N 38°00' W 122°25'2 2.4
2015-Aug-20 20:33N 37°58' W 122°27'2 1.8
2015-Aug-20 19:33N 37°58' W 122°29'0 0.0
2015-Aug-20 18:33N 37°58' W 122°29'0 0.1
2015-Aug-20 17:33N 37°58' W 122°29'0 0.0
2015-Aug-20 16:33N 37°58' W 122°29'2 1.7
2015-Aug-20 15:33N 37°58' W 122°27'1 1.3
2015-Aug-20 14:33N 37°59' W 122°26'2 2.1
2015-Aug-20 13:33N 37°58' W 122°29'0 0.0
2015-Aug-20 00:33N 37°58' W 122°29'0 0.0
2015-Aug-19 23:33N 37°58' W 122°29'0 0.0
2015-Aug-19 22:33N 37°58' W 122°29'2 1.6
2015-Aug-19 21:33N 37°58' W 122°27'2 2.0
2015-Aug-19 20:33N 37°60' W 122°26'3 2.9
2015-Aug-19 19:33N 37°58' W 122°29'0 0.0
2015-Aug-19 18:33N 37°58' W 122°29'0 0.0
2015-Aug-19 17:33N 37°58' W 122°29'0 0.0
2015-Aug-19 16:33N 37°58' W 122°29'1 0.5
2015-Aug-19 15:33N 37°58' W 122°29'3 3.4
2015-Aug-19 14:33N 38°00' W 122°25'3 3.4
2015-Aug-19 13:33N 37°58' W 122°28'1 0.0
2015-Aug-18 23:33N 37°58' W 122°29'0 0.0
2015-Aug-18 22:34N 37°58' W 122°29'  

Dump ship's entire track history